Time;durP1;ratioP1;P1;durP2;ratioP2;P2;SDS_P1;SDS_P2;PMS_P1;PMS_P2;Temp;Humidity;BMP_temperature;BMP_pressure;BME280_temperature;BME280_humidity;BME280_pressure;Samples;Min_cycle;Max_cycle;Signal;HPM_P1;HPM_P2
2022/08/18 00:00:45;;;;;;;130.87;38.97;;;;;;;;;;5049403;28;20416;-65
2022/08/18 00:03:11;;;;;;;86.80;33.73;;;;;;;;;;5050274;28;20048;-65
2022/08/18 00:05:38;;;;;;;90.20;33.10;;;;;;;;;;5049718;28;20041;-66
2022/08/18 00:08:05;;;;;;;98.33;35.30;;;;;;;;;;5049066;28;20041;-65
2022/08/18 00:27:58;;;;;;;104.73;35.60;;;;;;;;;;5006488;28;20056;-65
2022/08/18 00:30:25;;;;;;;74.77;29.77;;;;;;;;;;5029042;28;20061;-65
2022/08/18 00:32:52;;;;;;;134.47;37.33;;;;;;;;;;5036306;28;20064;-65
2022/08/18 00:35:22;;;;;;;89.60;32.90;;;;;;;;;;5049851;28;20053;-66
2022/08/18 00:37:48;;;;;;;96.97;35.73;;;;;;;;;;5049663;28;20080;-65
2022/08/18 00:40:17;;;;;;;108.30;36.10;;;;;;;;;;5050224;28;20045;-66
2022/08/18 00:49:28;;;;;;;105.63;33.67;;;;;;;;;;5049051;28;20056;-66
2022/08/18 00:51:57;;;;;;;78.83;29.00;;;;;;;;;;5048753;28;20108;-65
2022/08/18 00:54:33;;;;;;;85.17;33.57;;;;;;;;;;5049508;28;20045;-65
2022/08/18 00:57:01;;;;;;;86.13;31.43;;;;;;;;;;5049862;28;20319;-65
2022/08/18 00:59:30;;;;;;;73.43;30.57;;;;;;;;;;5049745;28;20513;-65
2022/08/18 01:02:01;;;;;;;78.00;30.63;;;;;;;;;;5049198;28;20048;-65
2022/08/18 01:04:37;;;;;;;75.50;32.33;;;;;;;;;;5048702;28;20132;-66
2022/08/18 01:07:11;;;;;;;69.50;29.23;;;;;;;;;;5048922;28;20044;-66
2022/08/18 01:09:37;;;;;;;71.07;30.07;;;;;;;;;;5049256;28;20053;-66
2022/08/18 01:12:03;;;;;;;115.70;37.07;;;;;;;;;;5049599;28;20059;-66
2022/08/18 01:14:29;;;;;;;127.77;37.03;;;;;;;;;;5048527;28;20525;-65
2022/08/18 01:22:31;;;;;;;146.73;39.90;;;;;;;;;;5049467;28;20049;-65
2022/08/18 01:27:43;;;;;;;83.43;31.00;;;;;;;;;;5049233;28;20499;-65
2022/08/18 01:30:13;;;;;;;96.53;30.90;;;;;;;;;;5049058;28;20049;-66
2022/08/18 01:32:40;;;;;;;97.93;33.77;;;;;;;;;;5049338;28;20055;-65
2022/08/18 01:35:08;;;;;;;104.93;33.83;;;;;;;;;;5049060;28;20051;-65
2022/08/18 01:37:34;;;;;;;105.27;36.23;;;;;;;;;;5049628;28;20109;-65
2022/08/18 01:40:04;;;;;;;110.17;35.47;;;;;;;;;;5049394;28;20041;-65
2022/08/18 01:42:30;;;;;;;94.23;33.43;;;;;;;;;;5049130;28;20048;-66
2022/08/18 01:44:56;;;;;;;75.23;29.80;;;;;;;;;;5048691;28;20068;-67
2022/08/18 01:47:22;;;;;;;86.20;31.33;;;;;;;;;;5049242;28;20059;-66
2022/08/18 01:49:48;;;;;;;66.73;28.00;;;;;;;;;;5049055;28;20131;-66
2022/08/18 01:52:16;;;;;;;122.30;35.13;;;;;;;;;;5048981;28;20044;-65
2022/08/18 01:54:42;;;;;;;68.47;29.50;;;;;;;;;;5049412;28;20131;-65
2022/08/18 01:57:13;;;;;;;95.67;34.80;;;;;;;;;;5048652;28;20052;-66
2022/08/18 01:59:40;;;;;;;115.80;35.23;;;;;;;;;;5049094;28;20133;-65
2022/08/18 02:02:06;;;;;;;89.57;32.83;;;;;;;;;;5049841;28;20040;-65
2022/08/18 02:04:33;;;;;;;92.40;32.90;;;;;;;;;;5052598;28;20084;-65
2022/08/18 02:07:01;;;;;;;73.53;30.13;;;;;;;;;;5051329;28;20048;-66
2022/08/18 02:09:27;;;;;;;62.27;28.87;;;;;;;;;;5052872;28;20053;-66
2022/08/18 02:11:53;;;;;;;75.90;30.17;;;;;;;;;;5053223;28;20127;-66
2022/08/18 02:14:19;;;;;;;68.63;30.33;;;;;;;;;;5052664;28;20045;-67
2022/08/18 02:16:45;;;;;;;63.37;27.70;;;;;;;;;;5052587;28;20406;-66
2022/08/18 02:19:11;;;;;;;91.30;32.13;;;;;;;;;;5052527;28;20418;-65
2022/08/18 02:21:38;;;;;;;109.47;35.23;;;;;;;;;;5052574;28;20818;-65
2022/08/18 02:24:04;;;;;;;79.50;30.90;;;;;;;;;;5053056;28;20045;-66
2022/08/18 02:26:30;;;;;;;116.60;35.23;;;;;;;;;;5052710;28;20120;-66
2022/08/18 02:28:56;;;;;;;92.33;32.67;;;;;;;;;;5052566;28;20099;-65
2022/08/18 02:31:23;;;;;;;61.87;28.63;;;;;;;;;;5052265;28;20059;-66
2022/08/18 02:33:49;;;;;;;82.63;31.97;;;;;;;;;;5051498;28;20521;-66
2022/08/18 02:36:15;;;;;;;87.87;31.33;;;;;;;;;;5052367;28;20048;-66
2022/08/18 02:38:42;;;;;;;80.43;30.93;;;;;;;;;;5052814;28;20051;-65
2022/08/18 02:41:09;;;;;;;80.03;31.87;;;;;;;;;;5052218;28;20116;-65
2022/08/18 02:43:36;;;;;;;72.43;30.27;;;;;;;;;;5051769;28;20048;-65
2022/08/18 02:46:03;;;;;;;99.93;36.33;;;;;;;;;;5052437;28;20060;-66
2022/08/18 02:48:34;;;;;;;85.70;34.93;;;;;;;;;;5052198;28;20048;-66
2022/08/18 02:51:01;;;;;;;90.03;33.30;;;;;;;;;;5052316;28;20411;-66
2022/08/18 02:53:27;;;;;;;114.37;37.43;;;;;;;;;;5052205;28;20056;-66
2022/08/18 02:55:54;;;;;;;86.83;34.13;;;;;;;;;;5051260;28;20045;-66
2022/08/18 02:58:20;;;;;;;108.17;36.13;;;;;;;;;;5050648;28;20131;-66
2022/08/18 03:00:46;;;;;;;85.70;34.20;;;;;;;;;;5052039;28;20098;-66
2022/08/18 03:03:12;;;;;;;133.67;41.10;;;;;;;;;;5051589;28;20041;-65
2022/08/18 03:05:39;;;;;;;107.07;36.53;;;;;;;;;;5052447;28;20060;-65
2022/08/18 03:08:05;;;;;;;127.57;41.17;;;;;;;;;;5051871;28;20186;-66
2022/08/18 03:10:34;;;;;;;149.13;44.73;;;;;;;;;;5051816;28;20483;-65
2022/08/18 03:13:00;;;;;;;84.87;35.93;;;;;;;;;;5051648;28;20048;-66
2022/08/18 03:15:27;;;;;;;81.33;35.10;;;;;;;;;;5050166;28;20081;-66
2022/08/18 03:17:53;;;;;;;111.67;39.70;;;;;;;;;;5051349;28;20122;-65
2022/08/18 03:20:19;;;;;;;96.63;36.30;;;;;;;;;;5050761;28;20049;-65
2022/08/18 03:22:45;;;;;;;101.27;37.27;;;;;;;;;;5051246;28;20045;-65
2022/08/18 03:25:11;;;;;;;126.83;38.87;;;;;;;;;;5051553;28;20041;-65
2022/08/18 03:27:37;;;;;;;113.33;40.30;;;;;;;;;;5051363;28;20419;-65
2022/08/18 03:30:03;;;;;;;119.47;39.80;;;;;;;;;;5049800;28;20064;-65
2022/08/18 03:32:29;;;;;;;139.33;40.87;;;;;;;;;;5050876;28;20099;-66
2022/08/18 03:34:55;;;;;;;114.43;41.33;;;;;;;;;;5051150;28;20457;-66
2022/08/18 03:37:21;;;;;;;153.83;43.73;;;;;;;;;;5051548;28;20403;-65
2022/08/18 03:39:50;;;;;;;105.40;37.93;;;;;;;;;;5051518;28;20045;-65
2022/08/18 03:42:16;;;;;;;112.57;38.67;;;;;;;;;;5050909;28;20051;-65
2022/08/18 03:44:42;;;;;;;168.00;43.57;;;;;;;;;;5051323;28;20421;-65
2022/08/18 03:47:10;;;;;;;103.53;38.13;;;;;;;;;;5051319;28;20041;-65
2022/08/18 03:49:36;;;;;;;101.60;38.23;;;;;;;;;;5050936;28;20124;-66
2022/08/18 03:52:04;;;;;;;73.67;30.50;;;;;;;;;;5051232;28;20041;-67
2022/08/18 03:54:30;;;;;;;98.30;37.03;;;;;;;;;;5050275;28;20060;-66
2022/08/18 03:56:58;;;;;;;109.50;37.97;;;;;;;;;;5051116;28;20053;-66
2022/08/18 03:59:24;;;;;;;86.00;34.37;;;;;;;;;;5050666;28;20045;-66
2022/08/18 04:01:52;;;;;;;91.17;35.93;;;;;;;;;;5048955;28;20048;-66
2022/08/18 04:04:20;;;;;;;107.10;37.07;;;;;;;;;;5051096;28;20510;-65
2022/08/18 04:06:52;;;;;;;103.87;37.13;;;;;;;;;;5050646;28;20086;-66
2022/08/18 04:09:19;;;;;;;88.53;33.58;;;;;;;;;;5050371;28;20499;-66
2022/08/18 04:11:46;;;;;;;88.00;34.30;;;;;;;;;;5050838;28;20095;-66
2022/08/18 04:14:13;;;;;;;91.70;33.87;;;;;;;;;;5049980;28;20329;-65
2022/08/18 04:16:40;;;;;;;92.10;34.30;;;;;;;;;;5050278;28;20049;-65
2022/08/18 04:19:06;;;;;;;94.47;33.17;;;;;;;;;;5051078;28;20072;-66
2022/08/18 04:21:34;;;;;;;87.00;34.33;;;;;;;;;;5050653;28;20051;-66
2022/08/18 04:24:02;;;;;;;102.43;35.33;;;;;;;;;;5048858;28;20096;-65
2022/08/18 04:26:28;;;;;;;68.23;28.67;;;;;;;;;;5049848;28;20202;-66
2022/08/18 04:28:55;;;;;;;105.20;36.47;;;;;;;;;;5049217;28;20056;-65
2022/08/18 04:31:23;;;;;;;76.60;30.73;;;;;;;;;;5048732;28;20040;-65
2022/08/18 04:33:49;;;;;;;71.93;30.97;;;;;;;;;;5048982;28;20503;-65
2022/08/18 04:36:16;;;;;;;68.60;29.20;;;;;;;;;;5047656;28;20048;-66
2022/08/18 04:38:43;;;;;;;72.47;30.30;;;;;;;;;;5045353;28;20048;-66
2022/08/18 04:41:11;;;;;;;104.10;34.67;;;;;;;;;;5048698;28;20048;-66
2022/08/18 04:43:37;;;;;;;80.30;30.77;;;;;;;;;;5048820;28;20060;-66
2022/08/18 04:46:04;;;;;;;79.63;32.47;;;;;;;;;;5047473;28;20651;-65
2022/08/18 04:48:34;;;;;;;73.57;29.53;;;;;;;;;;5049044;28;20094;-65
2022/08/18 04:51:19;;;;;;;64.40;29.80;;;;;;;;;;5048418;28;20033;-66
2022/08/18 04:53:46;;;;;;;59.57;27.37;;;;;;;;;;5045271;28;20098;-65
2022/08/18 04:56:24;;;;;;;63.20;28.80;;;;;;;;;;5048149;28;20045;-65
2022/08/18 04:58:51;;;;;;;90.40;33.07;;;;;;;;;;5047148;28;20048;-65
2022/08/18 05:01:20;;;;;;;58.73;27.33;;;;;;;;;;5048528;28;20072;-66
2022/08/18 05:03:46;;;;;;;106.23;34.17;;;;;;;;;;5048558;28;20473;-65
2022/08/18 05:06:12;;;;;;;60.30;28.23;;;;;;;;;;5047402;28;20041;-65
2022/08/18 05:08:39;;;;;;;103.73;32.53;;;;;;;;;;5048605;28;20902;-66
2022/08/18 05:11:05;;;;;;;88.80;32.03;;;;;;;;;;5048050;28;20103;-65
2022/08/18 05:13:31;;;;;;;84.43;30.30;;;;;;;;;;5048478;28;20056;-65
2022/08/18 05:16:02;;;;;;;65.20;27.50;;;;;;;;;;5048190;28;20049;-65
2022/08/18 05:18:29;;;;;;;73.83;29.27;;;;;;;;;;5048072;28;20079;-66
2022/08/18 05:20:56;;;;;;;78.93;28.53;;;;;;;;;;5049429;28;20045;-66
2022/08/18 05:23:22;;;;;;;103.60;32.13;;;;;;;;;;5049336;28;20053;-66
2022/08/18 05:25:49;;;;;;;100.03;32.13;;;;;;;;;;5049910;28;20052;-66
2022/08/18 05:28:17;;;;;;;86.47;31.40;;;;;;;;;;5049058;28;20037;-66
2022/08/18 05:30:43;;;;;;;73.90;29.40;;;;;;;;;;5049360;28;20049;-66
2022/08/18 05:33:10;;;;;;;75.27;29.67;;;;;;;;;;5049024;28;20044;-66
2022/08/18 05:35:38;;;;;;;57.00;26.40;;;;;;;;;;5049314;28;20059;-66
2022/08/18 05:38:04;;;;;;;53.23;25.70;;;;;;;;;;5049057;28;20076;-66
2022/08/18 05:40:30;;;;;;;81.77;31.97;;;;;;;;;;5048072;28;20053;-67
2022/08/18 05:42:58;;;;;;;69.53;28.13;;;;;;;;;;5049328;28;20048;-65
2022/08/18 05:45:24;;;;;;;62.63;28.23;;;;;;;;;;5049494;28;20110;-66
2022/08/18 05:47:50;;;;;;;58.10;27.87;;;;;;;;;;5049784;28;20400;-66
2022/08/18 05:50:18;;;;;;;69.40;30.23;;;;;;;;;;5049217;28;20502;-66
2022/08/18 05:52:58;;;;;;;95.57;35.83;;;;;;;;;;5031651;28;20045;-66
2022/08/18 05:58:32;;;;;;;76.07;30.93;;;;;;;;;;5040774;28;20045;-66
2022/08/18 06:01:01;;;;;;;56.33;28.53;;;;;;;;;;5049002;28;20500;-66
2022/08/18 06:03:34;;;;;;;64.47;29.60;;;;;;;;;;5049199;28;20132;-67
2022/08/18 06:06:02;;;;;;;59.63;28.20;;;;;;;;;;5048683;28;20097;-66
2022/08/18 06:08:30;;;;;;;56.37;25.87;;;;;;;;;;5048724;28;20135;-66
2022/08/18 06:10:56;;;;;;;53.37;26.07;;;;;;;;;;5049300;28;20438;-66
2022/08/18 06:13:22;;;;;;;40.10;21.27;;;;;;;;;;5033486;28;20514;-66
2022/08/18 06:16:03;;;;;;;60.53;27.73;;;;;;;;;;5029329;28;20415;-67
2022/08/18 06:18:40;;;;;;;41.30;20.70;;;;;;;;;;5029018;28;20053;-66
2022/08/18 06:21:16;;;;;;;31.93;19.40;;;;;;;;;;5038657;28;20137;-66
2022/08/18 06:23:48;;;;;;;39.60;21.27;;;;;;;;;;5048616;28;20056;-66
2022/08/18 06:26:20;;;;;;;55.80;23.20;;;;;;;;;;5048956;28;20505;-66
2022/08/18 06:28:51;;;;;;;44.40;19.00;;;;;;;;;;5043043;28;20089;-66
2022/08/18 06:31:26;;;;;;;38.13;20.73;;;;;;;;;;5046265;28;20518;-66
2022/08/18 06:33:58;;;;;;;45.53;19.50;;;;;;;;;;5039614;28;20073;-67
2022/08/18 06:36:33;;;;;;;38.73;20.17;;;;;;;;;;5029029;28;20108;-66
2022/08/18 06:39:02;;;;;;;33.53;17.97;;;;;;;;;;5029057;28;20296;-67
2022/08/18 06:41:39;;;;;;;48.20;22.20;;;;;;;;;;5039779;28;20052;-67
2022/08/18 06:44:09;;;;;;;36.23;18.87;;;;;;;;;;5048674;28;20056;-66
2022/08/18 06:46:56;;;;;;;28.87;17.40;;;;;;;;;;5048923;28;20045;-66
2022/08/18 06:49:30;;;;;;;40.47;20.50;;;;;;;;;;5041393;28;20052;-67
2022/08/18 06:51:56;;;;;;;28.17;18.67;;;;;;;;;;5052081;28;20041;-66
2022/08/18 06:54:22;;;;;;;32.30;19.60;;;;;;;;;;5051824;28;20047;-65
2022/08/18 06:56:50;;;;;;;35.20;21.90;;;;;;;;;;5052003;28;20120;-66
2022/08/18 06:59:17;;;;;;;42.03;21.13;;;;;;;;;;5051801;28;20049;-66
2022/08/18 07:01:44;;;;;;;24.13;16.63;;;;;;;;;;5052165;28;20050;-66
2022/08/18 07:04:29;;;;;;;24.57;18.47;;;;;;;;;;5051875;28;20276;-66
2022/08/18 07:06:55;;;;;;;25.77;16.13;;;;;;;;;;5051601;28;20041;-66
2022/08/18 07:09:23;;;;;;;30.60;16.40;;;;;;;;;;5051375;28;20095;-66
2022/08/18 07:12:04;;;;;;;21.17;12.87;;;;;;;;;;5051100;28;20056;-66
2022/08/18 07:14:30;;;;;;;20.93;13.47;;;;;;;;;;5051674;28;20052;-66
2022/08/18 07:17:09;;;;;;;20.60;12.93;;;;;;;;;;5051898;28;20507;-66
2022/08/18 07:19:36;;;;;;;30.60;18.23;;;;;;;;;;5050137;28;20041;-67
2022/08/18 07:22:04;;;;;;;26.10;17.77;;;;;;;;;;5051586;28;20095;-66
2022/08/18 07:24:32;;;;;;;22.53;13.00;;;;;;;;;;5050856;28;20624;-66
2022/08/18 07:27:04;;;;;;;28.50;17.50;;;;;;;;;;5051817;28;20044;-66
2022/08/18 07:29:32;;;;;;;31.70;16.07;;;;;;;;;;5051115;28;20735;-66
2022/08/18 07:32:01;;;;;;;18.67;12.60;;;;;;;;;;5050763;28;20084;-66
2022/08/18 07:34:36;;;;;;;17.33;12.80;;;;;;;;;;5051368;28;20079;-66
2022/08/18 07:37:08;;;;;;;16.17;12.40;;;;;;;;;;5051021;28;20422;-67
2022/08/18 07:39:37;;;;;;;27.87;14.00;;;;;;;;;;5051021;28;20500;-66
2022/08/18 07:42:17;;;;;;;23.13;16.03;;;;;;;;;;5051422;28;20338;-66
2022/08/18 07:44:52;;;;;;;24.27;14.80;;;;;;;;;;5051401;28;20098;-66
2022/08/18 07:47:21;;;;;;;26.40;15.00;;;;;;;;;;5050538;28;20471;-65
2022/08/18 07:49:47;;;;;;;20.43;12.13;;;;;;;;;;5051649;28;20127;-66
2022/08/18 07:52:13;;;;;;;23.27;14.63;;;;;;;;;;5050972;28;20045;-65
2022/08/18 07:54:50;;;;;;;19.70;11.17;;;;;;;;;;5051153;28;20052;-65
2022/08/18 07:57:19;;;;;;;19.17;11.70;;;;;;;;;;5050673;28;20048;-65
2022/08/18 07:59:57;;;;;;;18.57;13.53;;;;;;;;;;5050505;28;20095;-65
2022/08/18 08:02:23;;;;;;;18.83;11.90;;;;;;;;;;5050767;28;20124;-65
2022/08/18 08:04:49;;;;;;;16.20;11.30;;;;;;;;;;5048219;28;20607;-65
2022/08/18 08:07:42;;;;;;;15.10;10.40;;;;;;;;;;5050018;28;20041;-66
2022/08/18 08:10:18;;;;;;;16.60;9.52;;;;;;;;;;5049031;28;20064;-66
2022/08/18 08:13:03;;;;;;;13.33;8.77;;;;;;;;;;5049547;28;20120;-66
2022/08/18 08:15:41;;;;;;;12.97;8.33;;;;;;;;;;5047976;28;20502;-65
2022/08/18 08:18:16;;;;;;;16.83;12.63;;;;;;;;;;5049425;28;20048;-65
2022/08/18 08:20:49;;;;;;;17.40;10.97;;;;;;;;;;5030887;28;20048;-66
2022/08/18 08:23:16;;;;;;;13.75;9.57;;;;;;;;;;5037910;28;20136;-66
2022/08/18 08:25:42;;;;;;;13.37;9.80;;;;;;;;;;5047561;28;20057;-65
2022/08/18 08:28:14;;;;;;;16.10;8.00;;;;;;;;;;5049039;28;20045;-65
2022/08/18 08:30:44;;;;;;;10.33;6.03;;;;;;;;;;5050054;28;20570;-65
2022/08/18 08:33:25;;;;;;;9.13;6.03;;;;;;;;;;5049079;28;20049;-67
2022/08/18 08:35:51;;;;;;;6.77;5.80;;;;;;;;;;5049113;28;20129;-65
2022/08/18 08:38:22;;;;;;;7.20;4.83;;;;;;;;;;5047311;28;20063;-65
2022/08/18 08:40:57;;;;;;;11.27;5.33;;;;;;;;;;5049144;28;20115;-65
2022/08/18 08:43:26;;;;;;;10.63;6.37;;;;;;;;;;5048964;28;20045;-65
2022/08/18 08:46:11;;;;;;;6.27;5.67;;;;;;;;;;5048040;28;20133;-65
2022/08/18 08:48:42;;;;;;;11.67;6.50;;;;;;;;;;5048756;28;20048;-64
2022/08/18 08:51:27;;;;;;;12.37;8.87;;;;;;;;;;5048712;28;20399;-65
2022/08/18 08:54:15;;;;;;;9.83;6.30;;;;;;;;;;5048617;28;20059;-65
2022/08/18 08:56:44;;;;;;;9.07;7.27;;;;;;;;;;5048519;28;20204;-66
2022/08/18 08:59:12;;;;;;;10.50;7.00;;;;;;;;;;5048586;28;20067;-65
2022/08/18 09:01:47;;;;;;;11.77;10.03;;;;;;;;;;5048299;28;20044;-64
2022/08/18 09:04:32;;;;;;;15.07;8.57;;;;;;;;;;5048323;28;20771;-64
2022/08/18 09:06:58;;;;;;;11.80;7.83;;;;;;;;;;5048116;28;20114;-65
2022/08/18 09:09:25;;;;;;;7.23;5.27;;;;;;;;;;5047508;28;20049;-65
2022/08/18 09:12:10;;;;;;;5.57;3.83;;;;;;;;;;5047007;28;20064;-64
2022/08/18 09:14:36;;;;;;;7.20;3.43;;;;;;;;;;5046797;28;20052;-65
2022/08/18 09:17:15;;;;;;;4.73;3.23;;;;;;;;;;5048395;28;20041;-65
2022/08/18 09:19:57;;;;;;;7.03;3.77;;;;;;;;;;5048699;28;20420;-64
2022/08/18 09:22:23;;;;;;;9.10;2.97;;;;;;;;;;5047351;28;20052;-64
2022/08/18 09:24:51;;;;;;;2.87;2.03;;;;;;;;;;5047756;28;20052;-65
2022/08/18 09:27:36;;;;;;;3.90;2.90;;;;;;;;;;5048597;28;20045;-65
2022/08/18 09:30:04;;;;;;;2.47;1.80;;;;;;;;;;5048314;28;20684;-64
2022/08/18 09:32:34;;;;;;;4.00;2.00;;;;;;;;;;5048572;28;20086;-64
2022/08/18 09:35:23;;;;;;;3.13;1.90;;;;;;;;;;5048607;28;20037;-64
2022/08/18 09:41:30;;;;;;;4.60;1.97;;;;;;;;;;5048585;28;20037;-64
2022/08/18 09:43:36;;;;;;;4.90;1.83;;;;;;;;;;5048312;28;20053;-64
2022/08/18 09:46:05;;;;;;;5.53;2.53;;;;;;;;;;5043007;28;20094;-64
2022/08/18 09:48:38;;;;;;;6.57;2.43;;;;;;;;;;5047265;28;20041;-63
2022/08/18 09:51:14;;;;;;;7.97;2.50;;;;;;;;;;5043495;28;20431;-63
2022/08/18 09:53:46;;;;;;;4.93;2.13;;;;;;;;;;5046515;28;20165;-64
2022/08/18 09:56:13;;;;;;;6.97;2.05;;;;;;;;;;5043293;28;20048;-63
2022/08/18 09:58:59;;;;;;;3.87;2.30;;;;;;;;;;5043971;28;20478;-63
2022/08/18 10:01:39;;;;;;;6.33;2.83;;;;;;;;;;5028729;28;20415;-63
2022/08/18 10:04:14;;;;;;;9.10;2.47;;;;;;;;;;5045774;28;20150;-63
2022/08/18 10:06:44;;;;;;;6.33;2.80;;;;;;;;;;5035080;28;20042;-63
2022/08/18 10:09:26;;;;;;;5.45;3.13;;;;;;;;;;5037479;28;20041;-63
2022/08/18 10:11:57;;;;;;;7.70;3.42;;;;;;;;;;5048107;28;20128;-64
2022/08/18 10:14:39;;;;;;;4.63;2.00;;;;;;;;;;5047112;28;20091;-63
2022/08/18 10:17:31;;;;;;;4.75;1.40;;;;;;;;;;5047001;28;20414;-62
2022/08/18 10:20:16;;;;;;;2.17;1.30;;;;;;;;;;5033473;28;20053;-63
2022/08/18 10:22:44;;;;;;;4.68;1.48;;;;;;;;;;5045225;28;20172;-63
2022/08/18 10:25:13;;;;;;;4.82;1.40;;;;;;;;;;5033626;28;20061;-63
2022/08/18 10:27:43;;;;;;;4.13;1.20;;;;;;;;;;5049077;28;20049;-63
2022/08/18 10:30:29;;;;;;;2.63;1.17;;;;;;;;;;5051030;28;20433;-63
2022/08/18 10:32:56;;;;;;;2.83;1.48;;;;;;;;;;5043028;28;20037;-62
2022/08/18 10:35:37;;;;;;;3.40;1.40;;;;;;;;;;5051154;28;20048;-62
2022/08/18 10:38:16;;;;;;;3.33;1.42;;;;;;;;;;5042347;28;20203;-62
2022/08/18 10:40:42;;;;;;;4.85;2.00;;;;;;;;;;5038452;28;20080;-62
2022/08/18 10:43:10;;;;;;;5.93;1.95;;;;;;;;;;5045499;28;20143;-62
2022/08/18 10:45:38;;;;;;;3.58;1.70;;;;;;;;;;5040407;28;20876;-62
2022/08/18 10:48:04;;;;;;;5.03;1.70;;;;;;;;;;5031986;28;20129;-62
2022/08/18 10:50:34;;;;;;;4.13;1.70;;;;;;;;;;5033712;28;20132;-63
2022/08/18 10:53:00;;;;;;;4.90;1.80;;;;;;;;;;5051273;28;20053;-62
2022/08/18 10:55:39;;;;;;;2.78;1.33;;;;;;;;;;5051647;28;20064;-63
2022/08/18 10:58:14;;;;;;;3.60;1.50;;;;;;;;;;5050318;28;20531;-63
2022/08/18 11:01:02;;;;;;;6.00;1.60;;;;;;;;;;5051003;28;20056;-62
2022/08/18 11:03:38;;;;;;;3.13;1.40;;;;;;;;;;5051465;28;20081;-62
2022/08/18 11:06:06;;;;;;;2.90;1.05;;;;;;;;;;5031549;28;20053;-62
2022/08/18 11:08:35;;;;;;;2.70;1.48;;;;;;;;;;5032641;28;20041;-62
2022/08/18 11:11:06;;;;;;;3.45;1.27;;;;;;;;;;5051431;28;20384;-62
2022/08/18 11:13:39;;;;;;;2.83;1.48;;;;;;;;;;5050504;28;20091;-62
2022/08/18 11:16:24;;;;;;;4.95;1.20;;;;;;;;;;5050132;28;20061;-62
2022/08/18 11:18:56;;;;;;;2.42;1.30;;;;;;;;;;5050904;28;20115;-63
2022/08/18 11:21:35;;;;;;;3.38;1.42;;;;;;;;;;5051423;28;20070;-62
2022/08/18 11:24:13;;;;;;;4.22;1.45;;;;;;;;;;5051051;28;20044;-62
2022/08/18 11:26:44;;;;;;;4.35;1.23;;;;;;;;;;5051760;28;20051;-62
2022/08/18 11:29:30;;;;;;;2.15;1.00;;;;;;;;;;5050852;28;20056;-62
2022/08/18 11:32:07;;;;;;;3.47;1.25;;;;;;;;;;5051349;28;20618;-62
2022/08/18 11:34:36;;;;;;;1.88;0.90;;;;;;;;;;5050240;28;20037;-63
2022/08/18 11:37:04;;;;;;;2.47;1.25;;;;;;;;;;5051109;28;20059;-62
2022/08/18 11:39:30;;;;;;;2.17;1.10;;;;;;;;;;5050742;28;20052;-62
2022/08/18 11:41:57;;;;;;;2.58;1.20;;;;;;;;;;5050306;28;20041;-62
2022/08/18 11:44:25;;;;;;;2.97;1.08;;;;;;;;;;5050433;28;20538;-62
2022/08/18 11:47:00;;;;;;;2.40;1.00;;;;;;;;;;5051757;28;20045;-62
2022/08/18 11:49:31;;;;;;;2.72;1.10;;;;;;;;;;5050991;28;20049;-62
2022/08/18 11:52:01;;;;;;;2.95;1.10;;;;;;;;;;5050864;28;20131;-62
2022/08/18 11:54:53;;;;;;;2.95;1.33;;;;;;;;;;5050087;28;20051;-62
2022/08/18 11:57:40;;;;;;;3.65;1.50;;;;;;;;;;5050820;28;20045;-62
2022/08/18 12:00:25;;;;;;;3.03;0.90;;;;;;;;;;5050846;28;20045;-62
2022/08/18 12:03:00;;;;;;;3.72;1.15;;;;;;;;;;5049375;28;20115;-62
2022/08/18 12:05:26;;;;;;;2.45;1.10;;;;;;;;;;5048677;28;20629;-61
2022/08/18 12:07:52;;;;;;;2.97;1.08;;;;;;;;;;5048575;28;20048;-61
2022/08/18 12:10:19;;;;;;;2.60;1.08;;;;;;;;;;5048616;28;20199;-61
2022/08/18 12:12:51;;;;;;;3.72;1.30;;;;;;;;;;5048772;28;20066;-62
2022/08/18 12:15:17;;;;;;;2.83;0.80;;;;;;;;;;5048849;28;20049;-61
2022/08/18 12:17:44;;;;;;;6.22;1.20;;;;;;;;;;5048936;28;20131;-62
2022/08/18 12:20:11;;;;;;;5.85;1.33;;;;;;;;;;5050048;28;20124;-62
2022/08/18 12:22:38;;;;;;;2.90;1.10;;;;;;;;;;5050455;28;20059;-62
2022/08/18 12:25:05;;;;;;;3.78;1.30;;;;;;;;;;5048953;28;20049;-62
2022/08/18 12:27:32;;;;;;;1.85;1.02;;;;;;;;;;5049541;28;20048;-62
2022/08/18 12:30:00;;;;;;;3.42;1.40;;;;;;;;;;5050754;28;20181;-62
2022/08/18 12:32:27;;;;;;;3.67;1.13;;;;;;;;;;5050117;28;20038;-62
2022/08/18 12:34:53;;;;;;;5.63;1.50;;;;;;;;;;5049478;28;20041;-62
2022/08/18 12:37:23;;;;;;;3.75;1.27;;;;;;;;;;5050002;28;20071;-62
2022/08/18 12:39:50;;;;;;;3.08;1.05;;;;;;;;;;5050062;28;20171;-62
2022/08/18 12:42:16;;;;;;;1.95;1.10;;;;;;;;;;5049933;28;20419;-62
2022/08/18 12:44:42;;;;;;;1.63;0.85;;;;;;;;;;5049099;28;20503;-62
2022/08/18 12:47:13;;;;;;;3.03;1.30;;;;;;;;;;5048876;28;20502;-62
2022/08/18 12:49:39;;;;;;;4.47;1.23;;;;;;;;;;5048798;28;20499;-63
2022/08/18 12:52:05;;;;;;;2.42;1.42;;;;;;;;;;5048983;28;20049;-62
2022/08/18 12:54:33;;;;;;;3.22;1.13;;;;;;;;;;5048670;28;20044;-62
2022/08/18 12:56:59;;;;;;;2.15;1.23;;;;;;;;;;5049213;28;20072;-62
2022/08/18 12:59:25;;;;;;;3.95;1.25;;;;;;;;;;5049031;28;20053;-62
2022/08/18 13:01:52;;;;;;;3.67;1.23;;;;;;;;;;5048949;28;20083;-62
2022/08/18 13:04:18;;;;;;;2.88;0.93;;;;;;;;;;5048676;28;20050;-62
2022/08/18 13:06:46;;;;;;;4.68;1.17;;;;;;;;;;5048888;28;20047;-62
2022/08/18 13:09:12;;;;;;;1.70;1.10;;;;;;;;;;5049103;28;20098;-62
2022/08/18 13:11:38;;;;;;;2.55;1.17;;;;;;;;;;5048820;28;20045;-62
2022/08/18 13:14:04;;;;;;;3.08;1.17;;;;;;;;;;5048551;28;20075;-62
2022/08/18 13:16:31;;;;;;;1.70;1.08;;;;;;;;;;5049051;28;20403;-62
2022/08/18 13:18:57;;;;;;;2.22;1.17;;;;;;;;;;5048537;28;20045;-62
2022/08/18 13:21:23;;;;;;;2.33;1.20;;;;;;;;;;5049015;28;20036;-62
2022/08/18 13:23:50;;;;;;;2.28;1.20;;;;;;;;;;5048558;28;20516;-62
2022/08/18 13:26:19;;;;;;;2.50;1.10;;;;;;;;;;5048565;28;20060;-62
2022/08/18 13:28:45;;;;;;;2.30;1.10;;;;;;;;;;5048464;28;20057;-62
2022/08/18 13:31:11;;;;;;;1.95;1.20;;;;;;;;;;5047943;28;20044;-62
2022/08/18 13:33:39;;;;;;;4.07;1.35;;;;;;;;;;5048753;28;20117;-63
2022/08/18 13:36:05;;;;;;;2.00;1.10;;;;;;;;;;5048185;28;20063;-62
2022/08/18 13:38:31;;;;;;;4.22;1.30;;;;;;;;;;5048253;28;20049;-62
2022/08/18 13:40:58;;;;;;;3.25;1.15;;;;;;;;;;5047926;28;20041;-62
2022/08/18 13:43:28;;;;;;;7.47;1.35;;;;;;;;;;5048599;28;20077;-62
2022/08/18 13:45:54;;;;;;;2.38;0.90;;;;;;;;;;5047739;28;20667;-62
2022/08/18 13:48:20;;;;;;;1.55;1.00;;;;;;;;;;5046788;28;20041;-62
2022/08/18 13:50:47;;;;;;;3.67;1.05;;;;;;;;;;5048357;28;20479;-62
2022/08/18 13:53:14;;;;;;;3.60;1.38;;;;;;;;;;5048341;28;20049;-62
2022/08/18 13:55:40;;;;;;;4.28;1.17;;;;;;;;;;5048236;28;20049;-62
2022/08/18 13:58:06;;;;;;;3.75;1.30;;;;;;;;;;5048624;28;20041;-62
2022/08/18 14:00:33;;;;;;;3.00;1.40;;;;;;;;;;5052287;28;20120;-62
2022/08/18 14:02:59;;;;;;;3.55;1.40;;;;;;;;;;5052602;28;20045;-62
2022/08/18 14:05:25;;;;;;;1.98;1.20;;;;;;;;;;5051288;28;20048;-62
2022/08/18 14:07:51;;;;;;;2.42;1.05;;;;;;;;;;5051569;28;20052;-62
2022/08/18 14:10:17;;;;;;;2.75;0.95;;;;;;;;;;5050990;28;20063;-62
2022/08/18 14:12:44;;;;;;;2.65;1.00;;;;;;;;;;5051869;28;20052;-62
2022/08/18 14:15:12;;;;;;;2.28;1.25;;;;;;;;;;5051680;28;20127;-61
2022/08/18 14:17:38;;;;;;;2.58;1.20;;;;;;;;;;5050908;28;20055;-62
2022/08/18 14:28:20;;;;;;;2.90;1.10;;;;;;;;;;5050751;28;20044;-62
2022/08/18 14:30:46;;;;;;;1.95;1.00;;;;;;;;;;5050669;28;20553;-61
2022/08/18 14:33:19;;;;;;;1.98;0.90;;;;;;;;;;5050033;28;20414;-62
2022/08/18 14:35:46;;;;;;;3.47;1.10;;;;;;;;;;5051061;28;20045;-62
2022/08/18 14:38:13;;;;;;;1.48;0.75;;;;;;;;;;5050125;28;20036;-62
2022/08/18 14:40:40;;;;;;;3.17;1.35;;;;;;;;;;5049814;28;20044;-62
2022/08/18 14:43:06;;;;;;;1.50;0.70;;;;;;;;;;5050761;28;20459;-62
2022/08/18 14:45:33;;;;;;;4.25;1.50;;;;;;;;;;5050239;28;20102;-61
2022/08/18 14:47:59;;;;;;;2.28;1.08;;;;;;;;;;5048622;28;20037;-62
2022/08/18 14:50:25;;;;;;;2.95;1.08;;;;;;;;;;5049693;28;20041;-62
2022/08/18 14:52:51;;;;;;;3.42;1.38;;;;;;;;;;5049419;28;20132;-62
2022/08/18 14:55:18;;;;;;;1.63;1.00;;;;;;;;;;5050022;28;20045;-61
2022/08/18 14:57:44;;;;;;;2.38;1.27;;;;;;;;;;5049694;28;20080;-62
2022/08/18 15:00:14;;;;;;;3.55;1.20;;;;;;;;;;5049722;28;20061;-62
2022/08/18 15:02:40;;;;;;;3.05;1.27;;;;;;;;;;5047103;28;20041;-62
2022/08/18 15:05:10;;;;;;;3.22;1.20;;;;;;;;;;5049508;28;20087;-61
2022/08/18 15:07:39;;;;;;;2.38;1.30;;;;;;;;;;5049727;28;20048;-62
2022/08/18 15:10:09;;;;;;;4.60;1.10;;;;;;;;;;5047950;28;20172;-62
2022/08/18 15:12:35;;;;;;;2.33;1.10;;;;;;;;;;5049801;28;20040;-61
2022/08/18 15:15:02;;;;;;;2.05;0.80;;;;;;;;;;5049361;28;20045;-61
2022/08/18 15:17:28;;;;;;;2.28;0.90;;;;;;;;;;5049077;28;20509;-61
2022/08/18 15:19:54;;;;;;;3.55;1.02;;;;;;;;;;5049519;28;20037;-61
2022/08/18 15:28:08;;;;;;;6.20;1.02;;;;;;;;;;5045172;28;20051;-62
2022/08/18 15:30:36;;;;;;;3.45;1.40;;;;;;;;;;5038506;28;20057;-61
2022/08/18 15:33:02;;;;;;;2.78;1.20;;;;;;;;;;5049783;28;20517;-61